Time;durP1;ratioP1;P1;durP2;ratioP2;P2;SDS_P1;SDS_P2;PMS_P1;PMS_P2;Temp;Humidity;BMP_temperature;BMP_pressure;BME280_temperature;BME280_humidity;BME280_pressure;Samples;Min_cycle;Max_cycle;Signal;HPM_P1;HPM_P2
2022/04/06 00:00:21;;;;;;;24.73;17.70;;;10.10;99.90;;;;;;5060291;28;20170;-86
2022/04/06 00:02:47;;;;;;;28.40;18.52;;;10.10;99.90;;;;;;5047156;28;20574;-86
2022/04/06 00:05:13;;;;;;;27.88;17.45;;;10.00;99.90;;;;;;5045123;28;20232;-86
2022/04/06 00:07:40;;;;;;;30.70;18.90;;;10.00;99.90;;;;;;5044946;28;20180;-88
2022/04/06 00:10:07;;;;;;;25.95;17.15;;;10.00;99.90;;;;;;5035421;28;20537;-85
2022/04/06 00:12:37;;;;;;;32.67;18.02;;;10.00;99.90;;;;;;5034535;28;20733;-92
2022/04/06 00:15:06;;;;;;;30.55;17.75;;;10.00;99.90;;;;;;5034776;28;20282;-86
2022/04/06 00:17:32;;;;;;;26.63;16.88;;;10.00;99.90;;;;;;5010809;28;20199;-86
2022/04/06 00:19:57;;;;;;;31.57;19.53;;;10.00;99.90;;;;;;4996259;28;20207;-91
2022/04/06 00:22:23;;;;;;;27.60;19.40;;;10.00;99.90;;;;;;4996832;28;20792;-86
2022/04/06 00:24:49;;;;;;;29.20;18.23;;;10.00;99.90;;;;;;5010532;28;20986;-92
2022/04/06 00:27:15;;;;;;;24.67;16.90;;;9.90;99.90;;;;;;5011253;28;20958;-91
2022/04/06 00:29:41;;;;;;;26.30;18.13;;;10.00;99.90;;;;;;4994831;28;20433;-92
2022/04/06 00:32:07;;;;;;;26.83;18.07;;;10.00;99.90;;;;;;4995993;28;20667;-87
2022/04/06 00:37:17;;;;;;;35.47;22.40;;;9.90;99.90;;;;;;4996332;28;20665;-86
2022/04/06 00:39:42;;;;;;;38.63;24.50;;;9.90;99.90;;;;;;5011022;28;20225;-86
2022/04/06 00:42:08;;;;;;;37.67;22.57;;;9.90;99.90;;;;;;4995587;28;20200;-91
2022/04/06 00:44:35;;;;;;;40.63;23.57;;;9.80;99.90;;;;;;4998781;28;20255;-87
2022/04/06 00:47:03;;;;;;;30.73;20.77;;;9.80;99.90;;;;;;4996257;28;20425;-85
2022/04/06 00:49:29;;;;;;;28.15;18.40;;;9.70;99.90;;;;;;4994655;28;20203;-86
2022/04/06 00:51:55;;;;;;;30.55;19.38;;;9.70;99.90;;;;;;4995476;28;20279;-92
2022/04/06 00:54:23;;;;;;;28.83;18.58;;;9.70;99.90;;;;;;4993830;28;20180;-86
2022/04/06 00:56:49;;;;;;;28.48;19.52;;;9.60;99.90;;;;;;4995444;28;20594;-85
2022/04/06 00:59:16;;;;;;;37.95;20.17;;;9.60;99.90;;;;;;5010616;28;20248;-92
2022/04/06 01:01:45;;;;;;;26.90;18.52;;;9.50;99.90;;;;;;4994171;28;20187;-86
2022/04/06 01:04:11;;;;;;;34.40;19.50;;;9.50;99.90;;;;;;4995209;28;20528;-92
2022/04/06 01:06:36;;;;;;;31.15;19.08;;;9.40;99.90;;;;;;5014711;28;20266;-86
2022/04/06 01:09:03;;;;;;;26.40;18.13;;;9.40;99.90;;;;;;4997593;28;20191;-91
2022/04/06 01:11:28;;;;;;;25.27;15.63;;;9.30;99.90;;;;;;4999379;28;20266;-87
2022/04/06 01:13:55;;;;;;;31.77;19.47;;;9.30;99.90;;;;;;5015048;28;20176;-92
2022/04/06 01:16:20;;;;;;;30.92;18.50;;;9.30;99.90;;;;;;5016712;28;20177;-86
2022/04/06 01:18:46;;;;;;;31.73;18.47;;;9.30;99.90;;;;;;5054286;28;20198;-92
2022/04/06 01:21:12;;;;;;;29.43;17.87;;;9.20;99.90;;;;;;5054617;28;20644;-85
2022/04/06 01:23:42;;;;;;;24.47;16.47;;;9.20;99.90;;;;;;5037658;28;20206;-93
2022/04/06 01:26:09;;;;;;;23.88;17.10;;;9.20;99.90;;;;;;5054592;28;20679;-85
2022/04/06 01:28:36;;;;;;;29.77;18.23;;;9.10;99.90;;;;;;5036431;28;20193;-92
2022/04/06 01:31:02;;;;;;;23.45;16.35;;;9.10;99.90;;;;;;5036260;28;20189;-86
2022/04/06 01:33:28;;;;;;;26.57;17.30;;;9.00;99.90;;;;;;5053597;28;20194;-86
2022/04/06 01:35:56;;;;;;;28.25;19.10;;;9.00;99.90;;;;;;5036776;28;20398;-87
2022/04/06 01:38:23;;;;;;;25.40;17.30;;;8.90;99.90;;;;;;5038282;28;20688;-86
2022/04/06 01:40:48;;;;;;;30.17;18.02;;;8.90;99.90;;;;;;5045679;28;20216;-86
2022/04/06 01:43:14;;;;;;;27.73;17.33;;;8.80;99.90;;;;;;5043475;28;20193;-86
2022/04/06 01:45:40;;;;;;;26.03;17.63;;;8.80;99.90;;;;;;5060176;28;20214;-86
2022/04/06 01:48:06;;;;;;;28.87;16.80;;;8.80;99.90;;;;;;5057605;28;20217;-93
2022/04/06 01:53:15;;;;;;;31.80;19.83;;;8.70;99.90;;;;;;5059907;28;20200;-86
2022/04/06 01:55:41;;;;;;;32.08;18.52;;;8.70;99.90;;;;;;5060235;28;20186;-86
2022/04/06 01:58:08;;;;;;;32.00;18.90;;;8.60;99.90;;;;;;5043916;28;20194;-92
2022/04/06 02:00:33;;;;;;;27.45;17.85;;;8.60;99.90;;;;;;5054427;28;20568;-93
2022/04/06 02:03:02;;;;;;;23.70;16.10;;;8.60;99.90;;;;;;5054043;28;20190;-87
2022/04/06 02:05:33;;;;;;;27.75;19.15;;;8.60;99.90;;;;;;5052051;28;20491;-92
2022/04/06 02:07:59;;;;;;;26.13;16.73;;;8.50;99.90;;;;;;5043264;28;20285;-92
2022/04/06 02:10:25;;;;;;;31.52;19.70;;;8.50;99.90;;;;;;5036271;28;20182;-87
2022/04/06 02:12:54;;;;;;;30.45;17.20;;;8.50;99.90;;;;;;5036770;28;20667;-86
2022/04/06 02:15:20;;;;;;;30.45;19.83;;;8.40;99.90;;;;;;5034657;28;20195;-93
2022/04/06 02:17:47;;;;;;;26.80;16.87;;;8.40;99.90;;;;;;5017625;28;20214;-93
2022/04/06 02:20:13;;;;;;;83.65;33.80;;;8.30;99.90;;;;;;5018216;28;20395;-92
2022/04/06 02:22:40;;;;;;;58.40;29.60;;;8.30;99.90;;;;;;5016374;28;20609;-86
2022/04/06 02:25:06;;;;;;;45.53;25.13;;;8.20;99.90;;;;;;5018854;28;20219;-87
2022/04/06 02:27:31;;;;;;;54.90;27.90;;;8.10;99.90;;;;;;5016855;28;20206;-86
2022/04/06 02:29:57;;;;;;;49.43;24.53;;;8.10;99.90;;;;;;5018009;28;20459;-88
2022/04/06 02:32:23;;;;;;;57.40;25.87;;;8.10;99.90;;;;;;5018700;28;20676;-92
2022/04/06 02:34:48;;;;;;;59.30;29.53;;;8.10;99.90;;;;;;5017675;28;20338;-92
2022/04/06 02:37:14;;;;;;;53.40;27.30;;;8.10;99.90;;;;;;5018128;28;20195;-92
2022/04/06 02:39:40;;;;;;;55.13;24.80;;;8.10;99.90;;;;;;5017287;28;20644;-87
2022/04/06 02:42:06;;;;;;;40.85;22.67;;;8.10;99.90;;;;;;5018573;28;20969;-87
2022/04/06 02:44:33;;;;;;;42.75;22.38;;;8.10;99.90;;;;;;5019271;28;20191;-93
2022/04/06 02:46:59;;;;;;;35.67;19.33;;;8.10;99.90;;;;;;5017684;28;20207;-86
2022/04/06 02:49:25;;;;;;;29.13;17.83;;;8.10;99.90;;;;;;5019451;28;20193;-86
2022/04/06 02:51:51;;;;;;;25.52;16.75;;;8.00;99.90;;;;;;5024112;28;21005;-92
2022/04/06 02:54:17;;;;;;;25.83;14.83;;;8.00;99.90;;;;;;5017762;28;20282;-92
2022/04/06 02:56:42;;;;;;;22.20;14.10;;;8.00;99.90;;;;;;5034795;28;20433;-93
2022/04/06 02:59:08;;;;;;;24.60;14.43;;;7.90;99.90;;;;;;5018152;28;20558;-87
2022/04/06 03:01:35;;;;;;;26.57;16.00;;;7.80;99.90;;;;;;5026406;28;20186;-88
2022/04/06 03:04:00;;;;;;;19.63;13.25;;;7.80;99.90;;;;;;5015294;28;20425;-86
2022/04/06 03:06:26;;;;;;;27.17;16.40;;;7.70;99.90;;;;;;5018203;28;20700;-93
2022/04/06 03:08:52;;;;;;;26.03;15.17;;;7.60;99.90;;;;;;5031668;28;20617;-87
2022/04/06 03:11:18;;;;;;;22.30;13.67;;;7.60;99.90;;;;;;5016484;28;20418;-91
2022/04/06 03:13:43;;;;;;;21.87;14.33;;;7.50;99.90;;;;;;5017534;28;20507;-92
2022/04/06 03:16:09;;;;;;;27.60;14.97;;;7.50;99.90;;;;;;5017575;28;20174;-85
2022/04/06 03:18:35;;;;;;;23.70;13.77;;;7.40;99.90;;;;;;5016014;28;20195;-91
2022/04/06 03:21:01;;;;;;;21.08;14.10;;;7.40;99.90;;;;;;5015803;28;20918;-85
2022/04/06 03:23:27;;;;;;;24.50;14.27;;;7.40;99.90;;;;;;5018734;28;20206;-87
2022/04/06 03:25:53;;;;;;;31.43;15.90;;;7.40;99.90;;;;;;5034459;28;20218;-91
2022/04/06 03:28:19;;;;;;;24.50;14.57;;;7.40;99.90;;;;;;5017535;28;20218;-92
2022/04/06 03:30:45;;;;;;;29.67;14.85;;;7.40;99.90;;;;;;5016213;28;20247;-85
2022/04/06 03:33:13;;;;;;;22.53;13.80;;;7.40;99.90;;;;;;5015908;28;20227;-92
2022/04/06 03:35:39;;;;;;;25.58;14.02;;;7.40;99.90;;;;;;5016346;28;20190;-86
2022/04/06 03:38:05;;;;;;;30.73;14.63;;;7.50;99.90;;;;;;5020502;28;20195;-92
2022/04/06 03:40:31;;;;;;;21.95;13.05;;;7.50;99.90;;;;;;5017195;28;20401;-86
2022/04/06 03:42:57;;;;;;;20.63;12.50;;;7.50;99.90;;;;;;5015533;28;20285;-86
2022/04/06 03:45:23;;;;;;;23.25;13.50;;;7.40;99.90;;;;;;5015246;28;20450;-86
2022/04/06 03:47:49;;;;;;;22.05;12.00;;;7.40;99.90;;;;;;5032509;28;20195;-85
2022/04/06 03:50:15;;;;;;;25.80;13.47;;;7.40;99.90;;;;;;5015798;28;20179;-92
2022/04/06 03:52:41;;;;;;;20.05;11.93;;;7.50;99.90;;;;;;5016898;28;20210;-86
2022/04/06 03:55:09;;;;;;;22.58;13.50;;;7.50;99.90;;;;;;5018227;28;20660;-91
2022/04/06 03:57:35;;;;;;;18.38;11.98;;;7.50;99.90;;;;;;5020606;28;20199;-88
2022/04/06 04:00:04;;;;;;;18.98;13.35;;;7.50;99.90;;;;;;5016571;28;20283;-86
2022/04/06 04:02:31;;;;;;;24.30;14.55;;;7.50;99.90;;;;;;5018772;28;20191;-92
2022/04/06 04:04:56;;;;;;;23.17;14.30;;;7.40;99.90;;;;;;5017208;28;20219;-92
2022/04/06 04:07:22;;;;;;;23.80;13.83;;;7.40;99.90;;;;;;5018668;28;20302;-93
2022/04/06 04:09:51;;;;;;;26.47;16.77;;;7.40;99.90;;;;;;5033023;28;20431;-92
2022/04/06 04:12:18;;;;;;;22.30;13.10;;;7.40;99.90;;;;;;5016448;28;20847;-92
2022/04/06 04:14:46;;;;;;;21.10;14.35;;;7.40;99.90;;;;;;5015842;28;20245;-86
2022/04/06 04:17:12;;;;;;;19.38;12.98;;;7.40;99.90;;;;;;5033856;28;20277;-87
2022/04/06 04:19:38;;;;;;;23.03;13.43;;;7.40;99.90;;;;;;5026620;28;20578;-91
2022/04/06 04:22:04;;;;;;;35.30;18.10;;;7.40;99.90;;;;;;5021430;28;20225;-94
2022/04/06 04:24:30;;;;;;;34.45;15.95;;;7.40;99.90;;;;;;5036314;28;20698;-92
2022/04/06 04:26:55;;;;;;;56.73;27.83;;;7.40;99.90;;;;;;5020766;28;20245;-87
2022/04/06 04:29:21;;;;;;;33.50;19.83;;;7.50;99.90;;;;;;5023606;28;20226;-92
2022/04/06 04:31:50;;;;;;;34.33;18.87;;;7.50;99.90;;;;;;5016524;28;20191;-86
2022/04/06 04:34:16;;;;;;;30.20;16.35;;;7.50;99.90;;;;;;5011727;28;20577;-92
2022/04/06 04:36:41;;;;;;;28.57;15.20;;;7.60;99.90;;;;;;5020086;28;20187;-86
2022/04/06 04:39:07;;;;;;;26.70;15.40;;;7.60;99.90;;;;;;5028486;28;20210;-91
2022/04/06 04:41:33;;;;;;;29.42;15.80;;;7.70;99.90;;;;;;5026000;28;20187;-93
2022/04/06 04:43:59;;;;;;;19.33;14.20;;;7.70;99.90;;;;;;5016815;28;20540;-91
2022/04/06 04:46:25;;;;;;;22.35;14.75;;;7.70;99.90;;;;;;5021218;28;20202;-91
2022/04/06 04:48:51;;;;;;;26.07;15.43;;;7.80;99.90;;;;;;5010238;28;20218;-86
2022/04/06 04:51:17;;;;;;;27.87;16.17;;;7.80;99.90;;;;;;5013972;28;20420;-91
2022/04/06 04:53:43;;;;;;;26.83;16.17;;;7.80;99.90;;;;;;5004439;28;20200;-93
2022/04/06 04:56:09;;;;;;;26.10;17.42;;;7.80;99.90;;;;;;5010988;28;20185;-92
2022/04/06 04:58:35;;;;;;;32.55;20.10;;;7.80;99.90;;;;;;5012816;28;20199;-86
2022/04/06 05:01:01;;;;;;;37.03;19.53;;;7.80;99.90;;;;;;5010616;28;20179;-92
2022/04/06 05:03:27;;;;;;;35.67;18.08;;;7.90;99.90;;;;;;5011899;28;20403;-86
2022/04/06 05:05:54;;;;;;;40.77;19.37;;;7.90;99.90;;;;;;5012360;28;20254;-86
2022/04/06 05:08:21;;;;;;;34.08;17.60;;;7.90;99.90;;;;;;5012294;28;20197;-92
2022/04/06 05:10:47;;;;;;;27.77;16.92;;;7.90;99.90;;;;;;4994231;28;20184;-91
2022/04/06 05:13:14;;;;;;;28.83;17.07;;;7.90;99.90;;;;;;5016393;28;20274;-92
2022/04/06 05:15:40;;;;;;;29.67;17.38;;;8.00;99.90;;;;;;5023898;28;20436;-92
2022/04/06 05:18:06;;;;;;;25.10;17.30;;;8.00;99.90;;;;;;5021552;28;20222;-93
2022/04/06 05:20:32;;;;;;;32.10;17.63;;;8.00;99.90;;;;;;5019103;28;20239;-87
2022/04/06 05:22:58;;;;;;;29.92;15.13;;;8.00;99.90;;;;;;5006026;28;20561;-92
2022/04/06 05:25:24;;;;;;;29.00;15.00;;;8.00;99.90;;;;;;5011787;28;20337;-92
2022/04/06 05:27:53;;;;;;;19.20;14.20;;;8.10;99.90;;;;;;5026700;28;20203;-92
2022/04/06 05:30:21;;;;;;;24.27;13.63;;;8.20;99.90;;;;;;5014892;28;20441;-92
2022/04/06 05:32:49;;;;;;;27.50;14.77;;;8.20;99.90;;;;;;4997283;28;20704;-86
2022/04/06 05:35:15;;;;;;;29.60;15.10;;;8.30;99.90;;;;;;5003864;28;20250;-86
2022/04/06 05:37:43;;;;;;;24.10;14.23;;;8.40;99.90;;;;;;5020943;28;20673;-86
2022/04/06 05:40:10;;;;;;;22.13;12.98;;;8.50;99.90;;;;;;5015891;28;20489;-87
2022/04/06 05:42:36;;;;;;;24.15;14.50;;;8.50;99.90;;;;;;5011510;28;20214;-93
2022/04/06 05:45:04;;;;;;;25.58;14.23;;;8.60;99.90;;;;;;5011635;28;20214;-86
2022/04/06 05:47:30;;;;;;;21.25;13.73;;;8.70;99.90;;;;;;5014092;28;20227;-92
2022/04/06 05:49:55;;;;;;;21.23;13.27;;;8.70;99.90;;;;;;5006448;28;20260;-86
2022/04/06 05:52:21;;;;;;;21.87;12.77;;;8.80;99.90;;;;;;5012985;28;20562;-93
2022/04/06 05:54:47;;;;;;;22.98;14.52;;;8.90;99.90;;;;;;5019681;28;20256;-93
2022/04/06 05:57:13;;;;;;;25.37;14.30;;;9.10;99.90;;;;;;5019346;28;20298;-93
2022/04/06 05:59:40;;;;;;;24.37;12.97;;;9.20;99.90;;;;;;5024242;28;20219;-91
2022/04/06 06:02:07;;;;;;;20.75;11.43;;;9.30;99.90;;;;;;5025755;28;20199;-92
2022/04/06 06:04:33;;;;;;;18.33;11.20;;;9.50;99.90;;;;;;5014146;28;20183;-93
2022/04/06 06:06:59;;;;;;;18.95;9.77;;;9.60;99.90;;;;;;5014573;28;20235;-93
2022/04/06 06:09:26;;;;;;;16.13;10.10;;;9.70;99.90;;;;;;5013525;28;20179;-93
2022/04/06 06:11:52;;;;;;;17.55;9.00;;;9.90;99.90;;;;;;5014158;28;20556;-87
2022/04/06 06:14:18;;;;;;;15.83;10.10;;;10.00;99.90;;;;;;5007660;28;20190;-94
2022/04/06 06:16:45;;;;;;;19.57;10.80;;;10.20;99.90;;;;;;5029184;28;20183;-93
2022/04/06 06:19:11;;;;;;;18.35;11.35;;;10.30;99.90;;;;;;5010509;28;20913;-87
2022/04/06 06:21:37;;;;;;;15.77;9.77;;;10.50;99.90;;;;;;5015793;28;20265;-94
2022/04/06 06:24:05;;;;;;;17.80;10.07;;;10.60;99.90;;;;;;5039123;28;20210;-93
2022/04/06 06:26:38;;;;;;;17.05;11.48;;;10.80;99.90;;;;;;5013675;28;21044;-94
2022/04/06 06:29:05;;;;;;;17.88;10.32;;;10.90;99.90;;;;;;5013207;28;20640;-86
2022/04/06 06:31:31;;;;;;;16.90;9.35;;;11.00;99.90;;;;;;5011621;28;20225;-87
2022/04/06 06:34:01;;;;;;;17.40;9.65;;;11.20;99.90;;;;;;5002714;28;20542;-87
2022/04/06 06:36:27;;;;;;;16.67;11.00;;;11.40;99.90;;;;;;5015799;28;20182;-87
2022/04/06 06:38:53;;;;;;;14.02;9.02;;;11.50;99.90;;;;;;5006199;28;20219;-87
2022/04/06 06:41:21;;;;;;;15.63;9.18;;;11.60;99.90;;;;;;4993622;28;20175;-87
2022/04/06 06:43:48;;;;;;;14.25;9.38;;;11.80;99.90;;;;;;5006971;28;20207;-87
2022/04/06 06:46:21;;;;;;;21.23;11.55;;;11.90;99.90;;;;;;5015103;28;20218;-86
2022/04/06 06:48:48;;;;;;;17.65;10.30;;;12.10;99.90;;;;;;5015023;28;20203;-86
2022/04/06 06:51:15;;;;;;;15.55;10.35;;;12.20;99.90;;;;;;5018892;28;20179;-86
2022/04/06 06:53:41;;;;;;;17.13;9.60;;;12.30;99.90;;;;;;5014329;28;20207;-85
2022/04/06 06:56:07;;;;;;;15.97;10.00;;;12.50;99.90;;;;;;5010015;28;20179;-91
2022/04/06 06:58:33;;;;;;;26.80;10.35;;;12.60;99.90;;;;;;5014233;28;20199;-92
2022/04/06 07:00:59;;;;;;;19.70;10.57;;;12.80;99.90;;;;;;5014970;28;20871;-92
2022/04/06 07:03:25;;;;;;;19.75;10.65;;;12.90;99.90;;;;;;5004828;28;20194;-85
2022/04/06 07:05:51;;;;;;;18.10;11.33;;;13.00;99.90;;;;;;5001270;28;20714;-86
2022/04/06 07:08:16;;;;;;;18.63;12.30;;;13.10;99.90;;;;;;5014109;28;20460;-92
2022/04/06 07:10:47;;;;;;;16.83;11.13;;;13.20;99.90;;;;;;5032011;28;20558;-85
2022/04/06 07:13:15;;;;;;;16.87;10.53;;;13.30;99.90;;;;;;5017729;28;20203;-88
2022/04/06 07:15:41;;;;;;;16.97;10.73;;;13.40;99.90;;;;;;5014736;28;20483;-89
2022/04/06 07:18:11;;;;;;;14.00;9.97;;;13.60;99.90;;;;;;5012726;28;20468;-84
2022/04/06 07:20:40;;;;;;;14.00;9.30;;;13.70;99.90;;;;;;5002880;28;20459;-90
2022/04/06 07:23:07;;;;;;;15.83;9.20;;;13.90;99.90;;;;;;5011778;28;20506;-91
2022/04/06 07:25:33;;;;;;;14.73;9.97;;;14.00;99.90;;;;;;5010953;28;20881;-92
2022/04/06 07:28:00;;;;;;;12.43;8.30;;;14.10;99.90;;;;;;5012140;28;20592;-83
2022/04/06 07:30:26;;;;;;;13.23;8.30;;;14.30;99.90;;;;;;5011574;28;20425;-83
2022/04/06 07:32:52;;;;;;;9.67;7.23;;;14.40;99.90;;;;;;5013848;28;20452;-92
2022/04/06 07:35:18;;;;;;;12.27;9.00;;;14.50;99.90;;;;;;5019547;28;20437;-85
2022/04/06 07:37:49;;;;;;;13.37;8.67;;;14.60;99.90;;;;;;5010802;28;20456;-84
2022/04/06 07:40:17;;;;;;;14.43;9.53;;;14.70;99.90;;;;;;5009901;28;20428;-85
2022/04/06 07:42:43;;;;;;;15.30;10.37;;;14.80;99.90;;;;;;5007739;28;20440;-84
2022/04/06 07:45:16;;;;;;;15.77;8.67;;;14.90;99.90;;;;;;5026997;28;20469;-91
2022/04/06 07:47:43;;;;;;;10.67;7.67;;;15.00;99.90;;;;;;5007479;28;20455;-83
2022/04/06 07:50:10;;;;;;;15.50;10.47;;;15.20;99.90;;;;;;5004454;28;20441;-91
2022/04/06 07:52:36;;;;;;;14.20;10.20;;;15.30;99.90;;;;;;5012879;28;20492;-91
2022/04/06 07:55:07;;;;;;;14.47;8.50;;;15.40;99.90;;;;;;5024688;28;20420;-84
2022/04/06 07:57:34;;;;;;;9.13;6.03;;;15.50;99.90;;;;;;5012671;28;20747;-84
2022/04/06 08:00:11;;;;;;;12.43;7.83;;;15.60;99.50;;;;;;5016131;28;20464;-90
2022/04/06 08:02:37;;;;;;;9.00;5.97;;;15.60;99.50;;;;;;5009905;28;20440;-90
2022/04/06 08:05:04;;;;;;;16.23;9.47;;;15.80;97.90;;;;;;5006185;28;20949;-91
2022/04/06 08:07:31;;;;;;;11.30;9.23;;;15.80;98.90;;;;;;5028957;28;20821;-84
2022/04/06 08:09:56;;;;;;;11.60;8.53;;;16.00;99.00;;;;;;5015835;28;20450;-89
2022/04/06 08:12:22;;;;;;;11.57;9.27;;;16.00;99.10;;;;;;5006201;28;20456;-83
2022/04/06 08:14:48;;;;;;;9.70;8.30;;;16.10;98.40;;;;;;5019294;28;20660;-84
2022/04/06 08:17:15;;;;;;;11.97;8.47;;;16.30;98.70;;;;;;5003075;28;20202;-91
2022/04/06 08:19:41;;;;;;;10.20;7.80;;;16.30;97.80;;;;;;5013770;28;20504;-91
2022/04/06 08:22:07;;;;;;;12.40;8.17;;;16.40;96.60;;;;;;5028792;28;20546;-91
2022/04/06 08:24:34;;;;;;;14.57;9.33;;;16.50;97.40;;;;;;5006566;28;20834;-85
2022/04/06 08:26:59;;;;;;;13.23;8.27;;;16.70;97.80;;;;;;5029718;28;20996;-91
2022/04/06 08:29:26;;;;;;;8.17;6.80;;;16.80;96.20;;;;;;5024211;28;20462;-84
2022/04/06 08:31:52;;;;;;;10.03;6.90;;;16.90;96.80;;;;;;5023133;28;20284;-85
2022/04/06 08:34:18;;;;;;;15.83;8.53;;;17.00;94.00;;;;;;5012832;28;20542;-85
2022/04/06 08:36:45;;;;;;;12.50;7.43;;;17.20;93.90;;;;;;5032647;28;20221;-85
2022/04/06 08:39:11;;;;;;;8.67;6.33;;;17.30;93.70;;;;;;5018244;28;20707;-85
2022/04/06 08:41:36;;;;;;;14.03;8.57;;;17.60;93.10;;;;;;5008565;28;20432;-85
2022/04/06 08:44:02;;;;;;;11.10;7.60;;;18.10;92.50;;;;;;5029468;28;20436;-91
2022/04/06 08:46:34;;;;;;;9.73;6.93;;;19.00;91.20;;;;;;5014070;28;20211;-85
2022/04/06 08:49:00;;;;;;;9.40;6.63;;;19.90;87.90;;;;;;5030038;28;20479;-93
2022/04/06 08:51:28;;;;;;;8.97;6.47;;;20.70;85.60;;;;;;5036349;28;20424;-85
2022/04/06 08:53:54;;;;;;;8.80;6.83;;;21.40;82.60;;;;;;5015573;28;20443;-92
2022/04/06 08:56:22;;;;;;;8.87;6.90;;;21.60;79.90;;;;;;5007006;28;20993;-92
2022/04/06 08:58:48;;;;;;;7.77;6.60;;;22.00;78.90;;;;;;5028441;28;20471;-91
2022/04/06 09:01:14;;;;;;;8.30;6.63;;;22.20;77.80;;;;;;5003614;28;20443;-92
2022/04/06 09:03:40;;;;;;;10.43;6.40;;;22.30;76.70;;;;;;5011112;28;20459;-84
2022/04/06 09:06:11;;;;;;;8.40;6.73;;;22.40;76.20;;;;;;5017255;28;20250;-85
2022/04/06 09:08:42;;;;;;;9.27;6.50;;;22.50;75.30;;;;;;5005241;28;20455;-93
2022/04/06 09:11:10;;;;;;;11.30;7.77;;;22.60;74.90;;;;;;5003650;28;20961;-85
2022/04/06 09:13:36;;;;;;;8.00;6.20;;;22.70;73.50;;;;;;4992653;28;20812;-94
2022/04/06 09:16:02;;;;;;;7.90;5.47;;;22.90;74.00;;;;;;5002047;28;20531;-92
2022/04/06 09:18:35;;;;;;;9.20;5.63;;;23.00;70.80;;;;;;5001885;28;20467;-85
2022/04/06 09:21:02;;;;;;;7.87;6.10;;;23.10;71.20;;;;;;5000173;28;20441;-86
2022/04/06 09:23:32;;;;;;;8.77;5.90;;;23.10;70.70;;;;;;5000548;28;20460;-93
2022/04/06 09:26:09;;;;;;;9.13;5.80;;;23.10;71.80;;;;;;5008841;28;20488;-93
2022/04/06 09:28:40;;;;;;;9.30;5.70;;;23.20;70.20;;;;;;4986247;28;21814;-92
2022/04/06 09:31:06;;;;;;;5.33;4.60;;;23.10;69.80;;;;;;5002477;28;20431;-85
2022/04/06 09:33:32;;;;;;;9.27;6.40;;;23.00;68.70;;;;;;5000023;28;20483;-85
2022/04/06 09:35:58;;;;;;;8.30;5.77;;;22.90;69.00;;;;;;5016493;28;20502;-91
2022/04/06 09:38:31;;;;;;;6.73;5.63;;;22.80;69.60;;;;;;5001972;28;20432;-85
2022/04/06 09:41:11;;;;;;;34.83;18.83;;;22.60;68.90;;;;;;4996273;28;20458;-85
2022/04/06 09:43:38;;;;;;;8.03;5.70;;;22.40;69.50;;;;;;4994639;28;20464;-92
2022/04/06 09:49:24;;;;;;;8.17;5.80;;;22.30;69.60;;;;;;4999588;28;20436;-92
2022/04/06 09:51:51;;;;;;;6.00;4.40;;;22.00;70.00;;;;;;4985780;28;21040;-93
2022/04/06 09:54:17;;;;;;;6.13;5.10;;;21.90;69.70;;;;;;5007259;28;20500;-92
2022/04/06 09:56:44;;;;;;;8.57;5.80;;;21.80;70.60;;;;;;4985919;28;20677;-84
2022/04/06 09:59:12;;;;;;;6.80;4.83;;;21.70;70.40;;;;;;4989809;28;20535;-84
2022/04/06 10:01:44;;;;;;;5.77;4.33;;;21.60;70.60;;;;;;4997883;28;20789;-93
2022/04/06 10:04:12;;;;;;;6.43;5.53;;;21.50;70.70;;;;;;5023184;28;20447;-85
2022/04/06 10:06:40;;;;;;;7.00;5.00;;;21.50;70.10;;;;;;5024467;28;20482;-84
2022/04/06 10:09:11;;;;;;;9.80;5.30;;;21.40;70.80;;;;;;5031804;28;20503;-85
2022/04/06 10:11:38;;;;;;;6.03;5.43;;;21.40;70.10;;;;;;5025796;28;20431;-92
2022/04/06 10:14:06;;;;;;;4.90;4.40;;;21.30;70.60;;;;;;5039076;28;20445;-93
2022/04/06 10:16:34;;;;;;;7.33;5.40;;;21.20;70.10;;;;;;5012108;28;20431;-93
2022/04/06 10:19:02;;;;;;;6.03;4.63;;;21.00;70.30;;;;;;5013907;28;20434;-93
2022/04/06 10:21:41;;;;;;;4.90;3.73;;;21.00;71.50;;;;;;5034466;28;20456;-92
2022/04/06 10:24:22;;;;;;;4.70;4.10;;;20.90;70.60;;;;;;5011889;28;20454;-85
2022/04/06 10:27:23;;;;;;;7.07;5.40;;;20.90;71.70;;;;;;5032621;28;20471;-93
2022/04/06 10:30:11;;;;;;;6.80;4.10;;;20.90;71.00;;;;;;5033009;28;20480;-84
2022/04/06 10:32:40;;;;;;;6.83;4.53;;;20.80;71.70;;;;;;5032491;28;20512;-93
2022/04/06 10:35:33;;;;;;;6.63;4.07;;;20.90;72.10;;;;;;5032758;28;20436;-92
2022/04/06 10:37:59;;;;;;;4.43;3.97;;;21.00;71.10;;;;;;5013289;28;20456;-92
2022/04/06 10:40:26;;;;;;;4.13;3.40;;;21.00;71.30;;;;;;5035577;28;20465;-94
2022/04/06 10:42:52;;;;;;;4.20;3.60;;;21.00;71.30;;;;;;5031105;28;20207;-84
2022/04/06 10:45:27;;;;;;;3.93;3.23;;;21.00;71.20;;;;;;5013498;28;20486;-93
2022/04/06 10:48:14;;;;;;;6.00;3.10;;;21.00;71.80;;;;;;5031297;28;20524;-93
2022/04/06 10:50:45;;;;;;;3.77;3.47;;;21.00;72.20;;;;;;5008619;28;20539;-93
2022/04/06 10:53:20;;;;;;;3.90;2.77;;;20.90;71.90;;;;;;5027047;28;20446;-85
2022/04/06 10:55:57;;;;;;;4.37;3.70;;;21.00;72.20;;;;;;5008849;28;20458;-84
2022/04/06 10:58:25;;;;;;;3.50;2.87;;;21.00;72.60;;;;;;5025890;28;20465;-84
2022/04/06 11:01:14;;;;;;;3.67;3.30;;;21.10;72.00;;;;;;5017148;28;20424;-84
2022/04/06 11:03:44;;;;;;;4.43;3.87;;;21.10;71.60;;;;;;5018109;28;20462;-84
2022/04/06 11:06:10;;;;;;;3.90;3.30;;;21.20;71.90;;;;;;5000625;28;20520;-84
2022/04/06 11:11:45;;;;;;;4.67;3.80;;;21.00;71.00;;;;;;5000334;28;20722;-85
2022/04/06 11:14:30;;;;;;;3.23;3.00;;;21.00;72.30;;;;;;4997560;28;20456;-84
2022/04/06 11:16:56;;;;;;;4.00;3.70;;;21.10;71.50;;;;;;5007582;28;20793;-92
2022/04/06 11:19:22;;;;;;;5.13;4.10;;;21.10;71.70;;;;;;5024576;28;20421;-85
2022/04/06 11:21:51;;;;;;;4.43;3.63;;;21.20;72.10;;;;;;5006736;28;20186;-93
2022/04/06 11:24:19;;;;;;;4.03;3.63;;;21.20;71.90;;;;;;5019065;28;20195;-92
2022/04/06 11:26:45;;;;;;;4.37;3.73;;;21.30;72.10;;;;;;4998984;28;20481;-91
2022/04/06 11:29:12;;;;;;;3.83;3.43;;;21.30;70.50;;;;;;5001798;28;20448;-92
2022/04/06 11:31:58;;;;;;;4.17;3.83;;;21.20;70.70;;;;;;4999752;28;20277;-93
2022/04/06 11:34:40;;;;;;;4.57;4.10;;;21.30;72.10;;;;;;5005149;28;20448;-92
2022/04/06 11:37:08;;;;;;;5.47;4.90;;;21.40;71.60;;;;;;5024065;28;20452;-93
2022/04/06 11:39:35;;;;;;;5.87;4.87;;;21.50;71.80;;;;;;5014662;28;20436;-84
2022/04/06 11:42:03;;;;;;;4.90;4.40;;;21.60;71.30;;;;;;5014132;28;20471;-92
2022/04/06 11:44:29;;;;;;;6.77;4.80;;;21.70;70.50;;;;;;5005493;28;20429;-92
2022/04/06 11:46:56;;;;;;;5.77;5.17;;;21.80;70.60;;;;;;5004442;28;20543;-85
2022/04/06 11:49:24;;;;;;;6.53;5.20;;;21.70;71.40;;;;;;5004705;28;20520;-93
2022/04/06 11:51:52;;;;;;;5.93;5.33;;;21.80;71.50;;;;;;5004166;28;21027;-93
2022/04/06 11:54:19;;;;;;;6.03;5.53;;;21.90;71.30;;;;;;5007877;28;20455;-93
2022/04/06 11:56:49;;;;;;;7.03;5.63;;;21.90;71.00;;;;;;5011181;28;20934;-92
2022/04/06 11:59:16;;;;;;;5.80;5.20;;;22.00;71.00;;;;;;4998048;28;20441;-93
2022/04/06 12:01:45;;;;;;;5.70;4.70;;;22.00;70.90;;;;;;5005144;28;20425;-93
2022/04/06 12:04:19;;;;;;;5.23;4.73;;;22.00;70.60;;;;;;5011679;28;20440;-94
2022/04/06 12:06:46;;;;;;;5.43;4.93;;;21.90;70.30;;;;;;5012105;28;20984;-91
2022/04/06 12:09:12;;;;;;;5.73;4.70;;;21.90;70.50;;;;;;5015083;28;20435;-93
2022/04/06 12:11:39;;;;;;;5.03;4.50;;;21.90;70.90;;;;;;5012798;28;20534;-93
2022/04/06 12:14:06;;;;;;;4.80;4.30;;;21.90;70.50;;;;;;4991578;28;20601;-92
2022/04/06 12:16:33;;;;;;;5.90;4.90;;;21.90;70.20;;;;;;4998671;28;20464;-93
2022/04/06 12:18:59;;;;;;;5.23;4.03;;;22.00;70.20;;;;;;4989525;28;20515;-84
2022/04/06 12:21:28;;;;;;;5.80;4.87;;;22.10;71.10;;;;;;5006888;28;20546;-84
2022/04/06 12:23:54;;;;;;;4.90;4.00;;;22.20;70.10;;;;;;4993927;28;20251;-93
2022/04/06 12:26:24;;;;;;;6.43;4.80;;;22.20;70.10;;;;;;4995611;28;20936;-84
2022/04/06 12:29:00;;;;;;;4.60;3.87;;;22.20;69.90;;;;;;5002061;28;20456;-84
2022/04/06 12:31:36;;;;;;;3.20;2.90;;;22.30;69.90;;;;;;5007454;28;20424;-83
2022/04/06 12:34:03;;;;;;;4.67;3.47;;;22.20;68.90;;;;;;5020900;28;20791;-83
2022/04/06 12:36:32;;;;;;;3.40;3.10;;;22.20;69.10;;;;;;5010214;28;20404;-90
2022/04/06 12:39:14;;;;;;;4.30;3.90;;;22.20;69.10;;;;;;4997475;28;20892;-91
2022/04/06 12:41:59;;;;;;;4.30;3.50;;;22.20;69.00;;;;;;5002407;28;20497;-92
2022/04/06 12:44:26;;;;;;;4.80;4.00;;;22.30;69.10;;;;;;5001307;28;20487;-84
2022/04/06 12:46:52;;;;;;;3.07;2.83;;;22.40;69.30;;;;;;5009800;28;20483;-84
2022/04/06 12:49:28;;;;;;;4.33;3.93;;;22.30;68.40;;;;;;4997019;28;20444;-91
2022/04/06 12:52:09;;;;;;;4.30;3.90;;;22.20;68.80;;;;;;4996928;28;20459;-84